Terminal Aerodrome Forecast
Issued by NWS

Home | Current Version | Previous Version | Text Only | Print | Product List | Glossary On
Versions: 1 2 3 4 5 6 7 8 9 10 11 12 13 14 15 16 17 18 19 20 21 22 23 24 25 26 27
539
FTUS43 KAPX 241120
TAFTVC
TAF
KTVC 241120Z 2412/2512 04012G21KT 4SM -FZRASN BR VCTS SCT008
      OVC015CB
      TEMPO 2412/2415 1SM -SN BR BKN008
     FM241500 05013G22KT 2SM -RA VCTS OVC008CB
     FM250000 01011G20KT 2SM -RA OVC003
     FM250800 31011G20KT 3SM -FZRASN OVC003=

USA.gov is the U.S. government's official web portal to all federal, state and local government web resources and services.